createdAt,value
2023-02-05T00:01:32.999Z,101975.10
2023-02-05T00:04:00.461Z,101977.67
2023-02-05T00:06:27.606Z,101978.08
2023-02-05T00:08:57.445Z,101980.30
2023-02-05T00:11:25.265Z,101977.82
2023-02-05T00:13:52.463Z,101979.80
2023-02-05T00:16:21.696Z,101985.04
2023-02-05T00:18:48.701Z,101986.52
2023-02-05T00:21:16.479Z,101989.87
2023-02-05T00:23:45.773Z,101993.05
2023-02-05T00:26:14.575Z,101995.60
2023-02-05T00:28:42.652Z,101996.16
2023-02-05T00:31:15.328Z,101995.66
2023-02-05T00:33:42.797Z,101996.03
2023-02-05T00:36:12.738Z,101997.81
2023-02-05T00:38:41.095Z,101993.11
2023-02-05T00:41:08.460Z,101992.34
2023-02-05T00:43:38.470Z,101995.49
2023-02-05T00:46:06.041Z,101996.69
2023-02-05T00:48:33.095Z,101998.98
2023-02-05T00:51:00.137Z,102001.71
2023-02-05T00:53:27.498Z,101996.89
2023-02-05T00:55:55.061Z,101991.95
2023-02-05T00:58:22.423Z,101991.59
2023-02-05T01:00:50.737Z,101988.77
2023-02-05T01:03:18.890Z,101986.13
2023-02-05T01:05:46.650Z,101987.58
2023-02-05T01:08:14.524Z,101991.95
2023-02-05T01:10:50.286Z,101990.02
2023-02-05T01:13:18.724Z,101991.10
2023-02-05T01:15:46.419Z,101991.05
2023-02-05T01:18:13.800Z,101987.20
2023-02-05T01:20:42.183Z,101993.02
2023-02-05T01:23:09.762Z,101991.86
2023-02-05T01:25:37.105Z,101991.08
2023-02-05T01:28:04.629Z,101985.23
2023-02-05T01:30:31.655Z,101983.91
2023-02-05T01:32:58.773Z,101983.14
2023-02-05T01:35:25.719Z,101975.55
2023-02-05T01:37:52.601Z,101972.09
2023-02-05T01:40:20.030Z,101969.05
2023-02-05T01:42:47.398Z,101968.13
2023-02-05T01:45:23.451Z,101967.92
2023-02-05T01:47:53.429Z,101963.11
2023-02-05T01:50:28.580Z,101963.93
2023-02-05T01:52:58.360Z,101964.77
2023-02-05T01:55:25.422Z,101966.21
2023-02-05T01:57:53.661Z,101962.98
2023-02-05T02:00:31.160Z,101962.65
2023-02-05T02:03:00.050Z,101965.17
2023-02-05T02:05:26.946Z,101959.98
2023-02-05T02:07:53.855Z,101960.17
2023-02-05T02:10:21.292Z,101961.95
2023-02-05T02:12:50.140Z,101961.80
2023-02-05T02:15:25.740Z,101969.55
2023-02-05T02:18:17.751Z,101970.83
2023-02-05T02:20:46.900Z,101974.11
2023-02-05T02:23:13.904Z,101975.56
2023-02-05T02:26:00.400Z,101978.02
2023-02-05T02:28:46.996Z,101979.84
2023-02-05T02:31:22.635Z,101979.77
2023-02-05T02:34:05.362Z,101982.60
2023-02-05T02:36:37.628Z,101983.89
2023-02-05T02:39:14.304Z,101984.14
2023-02-05T02:41:54.215Z,101990.08
2023-02-05T02:44:33.172Z,101994.83
2023-02-05T02:47:06.645Z,102000.48
2023-02-05T02:49:39.354Z,101997.25
2023-02-05T02:52:11.206Z,102000.18
2023-02-05T02:54:41.653Z,102004.63
2023-02-05T02:57:10.747Z,102009.58
2023-02-05T02:59:41.068Z,102014.20
2023-02-05T03:02:11.717Z,102014.70
2023-02-05T03:04:48.180Z,102019.60
2023-02-05T03:07:25.577Z,102020.72
2023-02-05T03:09:57.025Z,102025.14
2023-02-05T03:12:24.484Z,102024.22
2023-02-05T03:14:52.674Z,102026.45
2023-02-05T03:17:27.051Z,102025.33
2023-02-05T03:20:03.332Z,102026.08
2023-02-05T03:22:30.183Z,102029.70
2023-02-05T03:24:57.441Z,102032.14
2023-02-05T03:27:24.799Z,102026.98
2023-02-05T03:29:52.156Z,102026.86
2023-02-05T03:32:45.108Z,102028.02
2023-02-05T03:35:34.176Z,102030.54
2023-02-05T03:38:37.099Z,102028.11
2023-02-05T03:41:10.374Z,102023.73
2023-02-05T03:43:52.213Z,102021.59
2023-02-05T03:46:25.299Z,102023.85
2023-02-05T03:49:10.566Z,102019.61
2023-02-05T03:52:04.533Z,102020.52
2023-02-05T03:54:56.863Z,102016.35
2023-02-05T03:57:45.098Z,102011.52
2023-02-05T04:00:14.192Z,102011.77
2023-02-05T04:02:42.175Z,102010.20
2023-02-05T04:05:10.045Z,102014.70
2023-02-05T04:07:38.214Z,102012.02
2023-02-05T04:10:05.985Z,102011.93
2023-02-05T04:12:33.956Z,102015.45
2023-02-05T04:15:01.424Z,102016.98
2023-02-05T04:17:28.896Z,102019.37
2023-02-05T04:19:55.829Z,102015.36
2023-02-05T04:22:22.677Z,102013.63
2023-02-05T04:24:49.527Z,102012.35
2023-02-05T04:27:16.960Z,102014.81
2023-02-05T04:29:43.848Z,102015.03
2023-02-05T04:32:10.790Z,102007.40
2023-02-05T04:34:37.690Z,102011.86
2023-02-05T04:37:05.927Z,102014.66
2023-02-05T04:39:33.075Z,102021.14
2023-02-05T04:42:01.975Z,102026.92
2023-02-05T04:44:29.137Z,102026.91
2023-02-05T04:46:56.075Z,102028.58
2023-02-05T04:49:23.129Z,102028.16
2023-02-05T04:51:50.082Z,102027.29
2023-02-05T04:54:17.041Z,102021.27
2023-02-05T04:56:43.979Z,102020.15
2023-02-05T04:59:10.829Z,102022.33
2023-02-05T05:01:37.796Z,102019.53
2023-02-05T05:04:04.735Z,102019.77
2023-02-05T05:06:31.590Z,102022.39
2023-02-05T05:08:58.533Z,102030.47
2023-02-05T05:11:26.095Z,102035.90
2023-02-05T05:13:53.144Z,102039.25
2023-02-05T05:16:20.147Z,102041.55
2023-02-05T05:18:47.275Z,102042.42
2023-02-05T05:21:14.204Z,102041.59
2023-02-05T05:23:41.050Z,102045.70
2023-02-05T05:26:11.264Z,102044.70
2023-02-05T05:28:38.740Z,102043.04
2023-02-05T05:31:11.321Z,102043.58
2023-02-05T05:33:38.588Z,102045.98
2023-02-05T05:36:07.070Z,102051.05
2023-02-05T05:38:34.330Z,102052.33
2023-02-05T05:41:20.302Z,102052.61
2023-02-05T05:43:47.874Z,102051.66
2023-02-05T05:46:24.207Z,102049.61
2023-02-05T05:48:56.309Z,102052.36
2023-02-05T05:51:24.696Z,102055.95
2023-02-05T05:53:52.145Z,102061.72
2023-02-05T05:56:19.911Z,102068.00
2023-02-05T05:58:49.739Z,102069.14
2023-02-05T06:01:20.558Z,102070.66
2023-02-05T06:03:47.511Z,102068.48
2023-02-05T06:06:17.144Z,102070.70
2023-02-05T06:08:45.109Z,102076.23
2023-02-05T06:11:12.182Z,102079.26
2023-02-05T06:13:39.206Z,102084.16
2023-02-05T06:16:06.442Z,102088.62
2023-02-05T06:18:33.924Z,102090.39
2023-02-05T06:21:02.410Z,102098.09
2023-02-05T06:23:32.120Z,102101.98
2023-02-05T06:25:58.936Z,102106.09
2023-02-05T06:28:25.823Z,102106.74
2023-02-05T06:30:53.056Z,102109.14
2023-02-05T06:33:20.125Z,102108.71
2023-02-05T06:35:47.087Z,102110.95
2023-02-05T06:38:14.129Z,102112.70
2023-02-05T06:40:40.975Z,102113.65
2023-02-05T06:43:08.029Z,102116.63
2023-02-05T06:45:35.227Z,102118.20
2023-02-05T06:48:02.441Z,102121.55
2023-02-05T06:50:29.504Z,102123.60
2023-02-05T06:52:56.458Z,102124.77
2023-02-05T06:55:23.303Z,102126.17
2023-02-05T06:57:50.454Z,102132.22
2023-02-05T07:00:17.602Z,102134.34
2023-02-05T07:02:44.502Z,102132.85
2023-02-05T07:05:11.623Z,102139.58
2023-02-05T07:07:38.770Z,102137.19
2023-02-05T07:10:06.458Z,102137.23
2023-02-05T07:12:33.382Z,102138.73
2023-02-05T07:15:00.239Z,102139.35
2023-02-05T07:17:27.205Z,102140.59
2023-02-05T07:19:54.233Z,102140.51
2023-02-05T07:22:21.259Z,102139.03
2023-02-05T07:24:48.239Z,102145.39
2023-02-05T07:27:15.105Z,102150.80
2023-02-05T07:29:42.046Z,102155.23
2023-02-05T07:32:09.496Z,102161.29
2023-02-05T07:34:36.861Z,102163.06
2023-02-05T07:37:03.811Z,102165.33
2023-02-05T07:39:30.782Z,102162.36
2023-02-05T07:41:57.715Z,102163.89
2023-02-05T07:44:31.834Z,102161.83
2023-02-05T07:46:58.770Z,102161.02
2023-02-05T07:49:25.821Z,102164.63
2023-02-05T07:51:53.078Z,102162.67
2023-02-05T07:54:20.029Z,102162.92
2023-02-05T07:56:46.982Z,102166.14
2023-02-05T07:59:14.134Z,102165.36
2023-02-05T08:01:41.086Z,102166.04
2023-02-05T08:04:07.954Z,102166.48
2023-02-05T08:06:35.404Z,102166.52
2023-02-05T08:09:02.555Z,102171.48
2023-02-05T08:11:31.170Z,102171.40
2023-02-05T08:14:00.799Z,102172.02
2023-02-05T08:16:27.835Z,102180.48
2023-02-05T08:18:54.751Z,102180.86
2023-02-05T08:21:22.227Z,102182.45
2023-02-05T08:23:49.781Z,102179.73
2023-02-05T08:26:17.871Z,102180.92
2023-02-05T08:28:44.910Z,102185.17
2023-02-05T08:31:15.174Z,102185.53
2023-02-05T08:33:42.426Z,102187.20
2023-02-05T08:36:10.747Z,102193.65
2023-02-05T08:38:37.841Z,102195.77
2023-02-05T08:41:14.806Z,102195.05
2023-02-05T08:43:44.111Z,102200.79
2023-02-05T08:46:12.887Z,102204.39
2023-02-05T08:48:40.068Z,102203.48
2023-02-05T08:51:10.084Z,102207.50
2023-02-05T08:53:37.024Z,102205.27
2023-02-05T08:56:05.547Z,102208.25
2023-02-05T08:58:33.387Z,102209.55
2023-02-05T09:01:06.299Z,102212.98
2023-02-05T09:03:33.740Z,102212.86
2023-02-05T09:06:02.324Z,102212.88
2023-02-05T09:08:31.157Z,102216.27
2023-02-05T09:10:58.369Z,102220.06
2023-02-05T09:13:25.933Z,102222.42
2023-02-05T09:15:52.893Z,102228.23
2023-02-05T09:18:20.346Z,102228.66
2023-02-05T09:20:49.657Z,102233.81
2023-02-05T09:23:18.651Z,102239.30
2023-02-05T09:25:45.707Z,102244.48
2023-02-05T09:28:14.615Z,102245.36
2023-02-05T09:30:46.404Z,102249.86
2023-02-05T09:33:14.446Z,102257.12
2023-02-05T09:35:42.422Z,102255.10
2023-02-05T09:38:12.941Z,102255.96
2023-02-05T09:40:51.044Z,102256.34
2023-02-05T09:43:29.903Z,102258.11
2023-02-05T09:46:12.212Z,102261.99
2023-02-05T09:49:11.558Z,102262.20
2023-02-05T09:51:44.137Z,102259.60
2023-02-05T09:54:32.983Z,102262.38
2023-02-05T09:57:15.282Z,102262.60
2023-02-05T09:59:46.078Z,102260.67
2023-02-05T10:02:51.965Z,102267.26
2023-02-05T10:05:24.346Z,102269.19
2023-02-05T10:08:23.824Z,102265.31
2023-02-05T10:10:53.843Z,102258.55
2023-02-05T10:13:20.589Z,102251.26
2023-02-05T10:16:16.233Z,102252.67
2023-02-05T10:19:06.576Z,102256.86
2023-02-05T10:21:48.780Z,102256.91
2023-02-05T10:24:39.473Z,102253.23
2023-02-05T10:27:35.429Z,102254.55
2023-02-05T10:30:23.812Z,102259.73
2023-02-05T10:32:58.252Z,102259.66
2023-02-05T10:35:44.848Z,102258.89
2023-02-05T10:38:21.216Z,102263.58
2023-02-05T10:40:51.360Z,102261.39
2023-02-05T10:43:34.375Z,102260.64
2023-02-05T10:46:02.240Z,102258.11
2023-02-05T10:48:44.737Z,102257.45
2023-02-05T10:51:28.145Z,102255.52
2023-02-05T10:53:55.117Z,102259.22
2023-02-05T10:56:22.371Z,102260.13
2023-02-05T10:58:52.296Z,102253.73
2023-02-05T11:01:21.091Z,102252.91
2023-02-05T11:04:01.735Z,102254.56
2023-02-05T11:06:32.776Z,102251.09
2023-02-05T11:09:00.241Z,102244.92
2023-02-05T11:11:28.312Z,102242.48
2023-02-05T11:14:00.796Z,102244.14
2023-02-05T11:16:44.520Z,102243.94
2023-02-05T11:19:27.957Z,102236.09
2023-02-05T11:22:01.753Z,102231.63
2023-02-05T11:24:34.136Z,102223.39
2023-02-05T11:27:16.741Z,102220.15
2023-02-05T11:29:43.886Z,102217.48
2023-02-05T11:32:37.858Z,102220.48
2023-02-05T11:35:22.534Z,102219.31
2023-02-05T11:38:14.629Z,102218.48
2023-02-05T11:40:41.683Z,102220.56
2023-02-05T11:43:19.480Z,102223.39
2023-02-05T11:45:51.812Z,102222.35
2023-02-05T11:48:43.674Z,102221.66
2023-02-05T11:51:15.440Z,102221.64
2023-02-05T11:53:54.873Z,102225.61
2023-02-05T11:56:25.336Z,102225.92
2023-02-05T11:59:00.160Z,102224.92
2023-02-05T12:01:32.695Z,102230.01
2023-02-05T12:04:11.940Z,102227.08
2023-02-05T12:06:43.088Z,102226.72
2023-02-05T12:09:19.863Z,102227.09
2023-02-05T12:12:04.368Z,102232.30
2023-02-05T12:14:36.483Z,102228.75
2023-02-05T12:17:33.580Z,102229.27
2023-02-05T12:20:14.190Z,102227.34
2023-02-05T12:23:08.768Z,102230.14
2023-02-05T12:26:15.318Z,102234.34
2023-02-05T12:29:04.164Z,102236.85
2023-02-05T12:32:09.395Z,102233.73
2023-02-05T12:35:06.744Z,102228.83
2023-02-05T12:37:56.603Z,102226.45
2023-02-05T12:40:32.456Z,102230.30
2023-02-05T12:43:35.013Z,102234.52
2023-02-05T12:46:10.908Z,102230.23
2023-02-05T12:48:43.860Z,102230.02
2023-02-05T12:51:22.789Z,102228.97
2023-02-05T12:54:22.274Z,102231.52
2023-02-05T12:56:51.762Z,102228.67
2023-02-05T12:59:44.619Z,102229.73
2023-02-05T13:02:39.657Z,102227.00
2023-02-05T13:05:09.443Z,102225.81
2023-02-05T13:07:45.801Z,102223.98
2023-02-05T13:10:32.908Z,102227.00
2023-02-05T13:13:05.607Z,102218.64
2023-02-05T13:15:40.758Z,102214.13
2023-02-05T13:18:14.733Z,102214.52
2023-02-05T13:21:26.510Z,102213.19
2023-02-05T13:24:22.216Z,102213.39
2023-02-05T13:27:08.402Z,102216.85
2023-02-05T13:29:51.620Z,102219.11
2023-02-05T13:32:23.897Z,102220.73
2023-02-05T13:34:55.347Z,102224.63
2023-02-05T13:37:31.613Z,102230.97
2023-02-05T13:39:58.560Z,102234.36
2023-02-05T13:43:18.933Z,102228.66
2023-02-05T13:45:59.716Z,102225.52
2023-02-05T13:48:53.148Z,102230.48
2023-02-05T13:51:43.431Z,102227.23
2023-02-05T13:54:28.942Z,102226.30
2023-02-05T13:57:33.611Z,102222.22
2023-02-05T14:00:01.659Z,102223.70
2023-02-05T14:02:46.543Z,102229.63
2023-02-05T14:05:14.657Z,102226.55
2023-02-05T14:07:50.262Z,102225.79
2023-02-05T14:10:29.683Z,102226.49
2023-02-05T14:13:23.064Z,102219.38
2023-02-05T14:15:54.427Z,102221.61
2023-02-05T14:18:40.215Z,102220.60
2023-02-05T14:21:32.112Z,102227.52
2023-02-05T14:24:02.849Z,102232.71
2023-02-05T14:27:01.013Z,102234.02
2023-02-05T14:29:45.062Z,102231.17
2023-02-05T14:32:28.178Z,102231.17
2023-02-05T14:35:24.084Z,102231.75
2023-02-05T14:37:52.057Z,102230.70
2023-02-05T14:40:36.041Z,102229.81
2023-02-05T14:43:25.870Z,102232.42
2023-02-05T14:45:53.738Z,102237.28
2023-02-05T14:48:29.495Z,102243.83
2023-02-05T14:51:26.020Z,102245.14
2023-02-05T14:53:58.189Z,102249.49
2023-02-05T14:56:36.305Z,102246.86
2023-02-05T14:59:30.254Z,102243.36
2023-02-05T15:01:59.572Z,102247.80
2023-02-05T15:04:29.479Z,102251.13
2023-02-05T15:07:01.254Z,102249.06
2023-02-05T15:09:51.823Z,102250.73
2023-02-05T15:12:37.415Z,102253.33
2023-02-05T15:15:43.955Z,102257.88
2023-02-05T15:18:20.417Z,102265.98
2023-02-05T15:20:51.814Z,102273.02
2023-02-05T15:23:26.531Z,102276.02
2023-02-05T15:26:05.843Z,102280.56
2023-02-05T15:28:39.766Z,102284.75
2023-02-05T15:31:17.153Z,102284.01
2023-02-05T15:34:03.545Z,102285.13
2023-02-05T15:36:35.513Z,102286.55
2023-02-05T15:39:14.273Z,102284.52
2023-02-05T15:41:45.364Z,102286.88
2023-02-05T15:44:28.300Z,102284.69
2023-02-05T15:46:58.181Z,102287.88
2023-02-05T15:49:52.060Z,102285.10
2023-02-05T15:52:30.876Z,102288.95
2023-02-05T15:55:11.952Z,102285.57
2023-02-05T15:57:39.529Z,102283.05
2023-02-05T16:00:09.831Z,102284.98
2023-02-05T16:02:40.234Z,102293.78
2023-02-05T16:05:23.246Z,102299.83
2023-02-05T16:08:02.189Z,102296.39
2023-02-05T16:10:35.153Z,102297.14
2023-02-05T16:13:05.416Z,102299.16
2023-02-05T16:15:53.562Z,102298.67
2023-02-05T16:18:32.512Z,102298.21
2023-02-05T16:21:04.955Z,102296.64
2023-02-05T16:23:43.275Z,102296.05
2023-02-05T16:26:20.259Z,102291.56
2023-02-05T16:28:58.681Z,102291.06
2023-02-05T16:31:28.503Z,102289.58
2023-02-05T16:34:01.540Z,102290.23
2023-02-05T16:36:32.908Z,102290.20
2023-02-05T16:39:03.348Z,102288.99
2023-02-05T16:41:38.886Z,102291.36
2023-02-05T16:44:07.987Z,102289.66
2023-02-05T16:46:36.190Z,102293.34
2023-02-05T16:49:27.467Z,102299.66
2023-02-05T16:51:56.165Z,102303.14
2023-02-05T16:54:33.698Z,102303.09
2023-02-05T16:57:22.792Z,102307.34
2023-02-05T16:59:54.870Z,102311.16
2023-02-05T17:02:29.246Z,102316.36
2023-02-05T17:04:58.102Z,102321.41
2023-02-05T17:07:26.022Z,102322.98
2023-02-05T17:10:09.509Z,102325.90
2023-02-05T17:12:45.762Z,102328.13
2023-02-05T17:15:16.080Z,102324.54
2023-02-05T17:17:51.049Z,102322.60
2023-02-05T17:20:18.471Z,102325.90
2023-02-05T17:23:00.683Z,102325.69
2023-02-05T17:25:29.377Z,102323.42
2023-02-05T17:27:57.112Z,102325.16
2023-02-05T17:30:24.088Z,102324.30
2023-02-05T17:32:51.298Z,102324.08
2023-02-05T17:35:22.460Z,102323.34
2023-02-05T17:37:49.849Z,102324.33
2023-02-05T17:40:18.444Z,102323.41
2023-02-05T17:42:46.824Z,102323.13
2023-02-05T17:45:20.501Z,102319.61
2023-02-05T17:47:48.042Z,102325.63
2023-02-05T17:50:16.632Z,102324.84
2023-02-05T17:52:44.950Z,102330.51
2023-02-05T17:55:19.187Z,102334.91
2023-02-05T17:57:46.733Z,102344.17
2023-02-05T18:00:32.870Z,102355.23
2023-02-05T18:02:59.981Z,102355.48
2023-02-05T18:05:27.046Z,102353.33
2023-02-05T18:07:56.954Z,102356.18
2023-02-05T18:10:26.990Z,102358.14
2023-02-05T18:12:56.312Z,102357.02
2023-02-05T18:15:25.095Z,102362.88
2023-02-05T18:17:53.349Z,102365.48
2023-02-05T18:20:21.967Z,102367.95
2023-02-05T18:22:50.216Z,102363.20
2023-02-05T18:25:18.643Z,102363.14
2023-02-05T18:27:45.842Z,102363.55
2023-02-05T18:30:13.137Z,102367.10
2023-02-05T18:32:39.941Z,102365.40
2023-02-05T18:35:09.355Z,102365.52
2023-02-05T18:37:37.170Z,102370.79
2023-02-05T18:40:04.748Z,102370.16
2023-02-05T18:42:31.847Z,102370.36
2023-02-05T18:44:58.823Z,102364.00
2023-02-05T18:47:25.678Z,102368.13
2023-02-05T18:49:52.565Z,102367.46
2023-02-05T18:52:19.673Z,102366.58
2023-02-05T18:57:46.402Z,102365.95
2023-02-05T19:00:13.746Z,102363.92
2023-02-05T19:02:42.352Z,102356.05
2023-02-05T19:05:11.463Z,102352.36
2023-02-05T19:07:39.426Z,102353.59
2023-02-05T19:10:07.516Z,102354.71
2023-02-05T19:12:35.809Z,102360.17
2023-02-05T19:15:03.039Z,102364.42
2023-02-05T19:17:30.086Z,102366.27
2023-02-05T19:19:57.148Z,102370.41
2023-02-05T19:22:24.498Z,102374.87
2023-02-05T19:24:51.665Z,102376.86
2023-02-05T19:27:19.317Z,102376.65
2023-02-05T19:29:46.676Z,102377.76
2023-02-05T19:32:13.728Z,102377.67
2023-02-05T19:34:43.971Z,102378.85
2023-02-05T19:37:12.351Z,102373.55
2023-02-05T19:39:39.609Z,102372.36
2023-02-05T19:42:07.374Z,102373.42
2023-02-05T19:44:34.436Z,102375.04
2023-02-05T19:47:02.066Z,102379.23
2023-02-05T19:49:29.763Z,102379.92
2023-02-05T19:51:59.672Z,102380.17
2023-02-05T19:54:27.140Z,102376.92
2023-02-05T19:56:54.293Z,102377.98
2023-02-05T19:59:21.966Z,102379.10
2023-02-05T20:01:50.185Z,102382.21
2023-02-05T20:04:29.268Z,102383.86
2023-02-05T20:06:58.677Z,102386.03
2023-02-05T20:09:27.430Z,102379.63
2023-02-05T20:11:55.652Z,102382.34
2023-02-05T20:14:23.858Z,102387.50
2023-02-05T20:16:52.277Z,102394.23
2023-02-05T20:19:20.387Z,102396.31
2023-02-05T20:21:49.277Z,102407.33
2023-02-05T20:24:17.647Z,102412.89
2023-02-05T20:26:48.796Z,102414.39
2023-02-05T20:29:37.673Z,102412.80
2023-02-05T20:32:06.355Z,102414.80
2023-02-05T20:34:36.115Z,102417.57
2023-02-05T20:37:06.108Z,102422.88
2023-02-05T20:39:35.489Z,102422.65
2023-02-05T20:42:03.912Z,102428.02
2023-02-05T20:44:34.426Z,102435.69
2023-02-05T20:47:01.894Z,102434.06
2023-02-05T20:49:29.032Z,102435.52
2023-02-05T20:51:56.277Z,102439.21
2023-02-05T20:54:23.949Z,102438.95
2023-02-05T20:56:52.227Z,102442.58
2023-02-05T20:59:19.280Z,102447.54
2023-02-05T21:01:46.146Z,102442.67
2023-02-05T21:04:13.590Z,102439.95
2023-02-05T21:06:41.685Z,102442.44
2023-02-05T21:09:10.259Z,102449.95
2023-02-05T21:11:38.123Z,102455.53
2023-02-05T21:14:07.234Z,102453.62
2023-02-05T21:16:35.847Z,102457.13
2023-02-05T21:19:04.672Z,102457.70
2023-02-05T21:21:35.129Z,102461.88
2023-02-05T21:24:05.163Z,102465.23
2023-02-05T21:26:40.195Z,102470.88
2023-02-05T21:29:16.897Z,102474.98
2023-02-05T21:31:50.126Z,102475.35
2023-02-05T21:34:21.842Z,102477.22
2023-02-05T21:36:49.495Z,102479.36
2023-02-05T21:39:17.284Z,102482.52
2023-02-05T21:41:45.938Z,102485.84
2023-02-05T21:44:13.122Z,102490.36
2023-02-05T21:46:40.769Z,102496.23
2023-02-05T21:49:08.014Z,102497.97
2023-02-05T21:51:35.583Z,102499.52
2023-02-05T21:54:05.823Z,102498.66
2023-02-05T21:56:35.016Z,102488.31
2023-02-05T21:59:02.469Z,102490.24
2023-02-05T22:01:35.218Z,102484.82
2023-02-05T22:04:05.214Z,102487.89
2023-02-05T22:06:36.338Z,102495.54
2023-02-05T22:09:06.089Z,102495.61
2023-02-05T22:11:34.159Z,102493.17
2023-02-05T22:14:04.145Z,102490.11
2023-02-05T22:16:33.369Z,102497.02
2023-02-05T22:19:01.948Z,102500.91
2023-02-05T22:21:34.688Z,102498.11
2023-02-05T22:24:03.475Z,102502.73
2023-02-05T22:26:37.688Z,102508.34
2023-02-05T22:29:06.727Z,102505.55
2023-02-05T22:31:35.251Z,102507.87
2023-02-05T22:34:02.768Z,102512.02
2023-02-05T22:36:32.783Z,102511.25
2023-02-05T22:39:01.410Z,102508.89
2023-02-05T22:41:31.914Z,102506.12
2023-02-05T22:44:00.623Z,102509.52
2023-02-05T22:46:30.556Z,102508.48
2023-02-05T22:48:59.717Z,102507.05
2023-02-05T22:51:32.927Z,102505.16
2023-02-05T22:54:00.581Z,102504.48
2023-02-05T22:56:29.363Z,102512.02
2023-02-05T22:58:57.702Z,102509.36
2023-02-05T23:01:32.493Z,102506.50
2023-02-05T23:03:59.939Z,102503.27
2023-02-05T23:06:30.325Z,102508.02
2023-02-05T23:09:10.316Z,102515.02
2023-02-05T23:11:37.766Z,102512.58
2023-02-05T23:14:06.774Z,102509.27
2023-02-05T23:16:36.860Z,102508.98
2023-02-05T23:19:08.139Z,102507.36
2023-02-05T23:21:36.631Z,102505.23
2023-02-05T23:24:04.500Z,102507.89
2023-02-05T23:26:34.879Z,102499.52
2023-02-05T23:29:01.889Z,102499.40
2023-02-05T23:31:29.740Z,102504.92
2023-02-05T23:33:56.915Z,102509.67
2023-02-05T23:36:23.973Z,102506.00
2023-02-05T23:38:51.218Z,102506.31
2023-02-05T23:41:35.947Z,102513.25
2023-02-05T23:44:15.309Z,102505.36
2023-02-05T23:46:45.141Z,102498.61
2023-02-05T23:49:13.304Z,102498.73
2023-02-05T23:51:41.077Z,102500.17
2023-02-05T23:54:10.693Z,102493.58
2023-02-05T23:56:38.061Z,102497.02
2023-02-05T23:59:06.628Z,102501.03
